createdAt,value
2022-09-26T00:01:55.723Z,12.00
2022-09-26T00:04:42.534Z,12.00
2022-09-26T00:07:28.881Z,12.00
2022-09-26T00:10:15.372Z,12.10
2022-09-26T00:13:02.156Z,12.10
2022-09-26T00:15:50.069Z,12.10
2022-09-26T00:18:37.180Z,12.10
2022-09-26T00:21:24.565Z,12.10
2022-09-26T00:24:10.884Z,12.10
2022-09-26T00:26:57.189Z,12.10
2022-09-26T00:29:43.685Z,12.10
2022-09-26T00:32:31.733Z,12.10
2022-09-26T00:35:18.680Z,12.10
2022-09-26T00:38:06.309Z,12.10
2022-09-26T00:40:52.924Z,12.10
2022-09-26T00:43:41.080Z,12.10
2022-09-26T00:46:32.929Z,12.10
2022-09-26T00:49:26.429Z,12.10
2022-09-26T00:52:16.931Z,12.10
2022-09-26T00:55:06.707Z,12.10
2022-09-26T00:57:58.095Z,12.00
2022-09-26T01:00:47.690Z,12.10
2022-09-26T01:03:35.776Z,12.10
2022-09-26T01:06:24.096Z,12.20
2022-09-26T01:09:12.638Z,12.20
2022-09-26T01:12:02.364Z,12.20
2022-09-26T01:14:52.350Z,12.00
2022-09-26T01:17:42.188Z,12.00
2022-09-26T01:20:34.467Z,12.10
2022-09-26T01:24:05.838Z,12.00
2022-09-26T01:27:16.807Z,12.00
2022-09-26T01:30:11.209Z,12.00
2022-09-26T01:33:14.399Z,12.10
2022-09-26T01:36:25.819Z,12.10
2022-09-26T01:39:39.584Z,12.10
2022-09-26T01:42:33.787Z,12.10
2022-09-26T01:45:26.074Z,12.10
2022-09-26T01:48:17.063Z,12.00
2022-09-26T01:51:10.099Z,12.10
2022-09-26T01:54:00.578Z,12.00
2022-09-26T01:56:49.829Z,12.10
2022-09-26T01:59:41.804Z,12.10
2022-09-26T02:02:34.865Z,12.00
2022-09-26T02:05:26.460Z,12.00
2022-09-26T02:08:17.259Z,12.00
2022-09-26T02:11:09.971Z,11.90
2022-09-26T02:14:03.837Z,12.00
2022-09-26T02:16:52.064Z,12.00
2022-09-26T02:19:46.116Z,12.00
2022-09-26T02:22:34.729Z,12.00
2022-09-26T02:25:21.060Z,12.00
2022-09-26T02:28:07.387Z,12.00
2022-09-26T02:30:55.504Z,12.00
2022-09-26T02:33:42.460Z,12.00
2022-09-26T02:36:34.486Z,11.90
2022-09-26T02:39:21.094Z,11.90
2022-09-26T02:42:17.981Z,11.90
2022-09-26T02:45:21.712Z,11.90
2022-09-26T02:48:28.881Z,11.90
2022-09-26T02:51:27.646Z,11.90
2022-09-26T02:54:26.000Z,11.90
2022-09-26T02:57:22.956Z,11.80
2022-09-26T03:00:16.244Z,11.90
2022-09-26T03:03:08.796Z,11.80
2022-09-26T03:05:59.817Z,11.90
2022-09-26T03:08:49.191Z,11.80
2022-09-26T03:11:37.664Z,11.90
2022-09-26T03:14:24.376Z,11.90
2022-09-26T03:17:11.559Z,11.90
2022-09-26T03:20:04.347Z,11.80
2022-09-26T03:22:51.623Z,11.80
2022-09-26T03:25:38.399Z,11.80
2022-09-26T03:28:26.569Z,11.90
2022-09-26T03:31:13.382Z,11.90
2022-09-26T03:33:59.691Z,11.80
2022-09-26T03:36:46.598Z,11.90
2022-09-26T03:39:33.262Z,11.90
2022-09-26T03:42:19.516Z,11.90
2022-09-26T03:45:11.088Z,11.90
2022-09-26T03:47:58.097Z,11.90
2022-09-26T03:50:44.885Z,11.90
2022-09-26T03:53:33.212Z,11.90
2022-09-26T03:56:21.845Z,12.00
2022-09-26T03:59:08.760Z,11.90
2022-09-26T04:01:56.647Z,11.90
2022-09-26T04:04:43.111Z,11.90
2022-09-26T04:07:29.433Z,11.80
2022-09-26T04:10:15.927Z,11.90
2022-09-26T04:13:03.137Z,11.90
2022-09-26T04:15:56.050Z,11.90
2022-09-26T04:18:44.243Z,11.90
2022-09-26T04:21:31.174Z,11.90
2022-09-26T04:24:18.086Z,11.90
2022-09-26T04:27:04.899Z,11.90
2022-09-26T04:29:51.500Z,11.90
2022-09-26T04:32:37.806Z,11.90
2022-09-26T04:35:25.531Z,11.90
2022-09-26T04:38:11.957Z,11.90
2022-09-26T04:40:58.409Z,11.90
2022-09-26T04:43:45.564Z,11.90
2022-09-26T04:46:32.186Z,11.90
2022-09-26T04:49:18.902Z,11.80
2022-09-26T04:52:06.590Z,11.80
2022-09-26T04:54:53.068Z,11.80
2022-09-26T04:57:39.423Z,11.70
2022-09-26T05:00:25.697Z,11.80
2022-09-26T05:03:13.213Z,11.80
2022-09-26T05:06:00.156Z,11.90
2022-09-26T05:08:48.546Z,11.80
2022-09-26T05:11:35.138Z,11.80
2022-09-26T05:14:21.979Z,11.80
2022-09-26T05:17:09.561Z,11.80
2022-09-26T05:19:56.992Z,11.90
2022-09-26T05:22:43.678Z,11.90
2022-09-26T05:25:56.523Z,11.90
2022-09-26T05:28:43.435Z,12.00
2022-09-26T05:31:32.468Z,12.00
2022-09-26T05:34:20.351Z,12.00
2022-09-26T05:37:06.957Z,11.90
2022-09-26T05:40:10.659Z,11.90
2022-09-26T05:43:02.773Z,12.00
2022-09-26T05:45:50.868Z,12.00
2022-09-26T05:48:39.652Z,12.00
2022-09-26T05:51:26.190Z,12.00
2022-09-26T05:54:12.678Z,12.00
2022-09-26T05:56:58.957Z,12.10
2022-09-26T05:59:46.693Z,12.10
2022-09-26T06:02:33.589Z,12.00
2022-09-26T06:05:20.467Z,12.10
2022-09-26T06:08:07.221Z,12.10
2022-09-26T06:10:55.452Z,12.10
2022-09-26T06:13:45.703Z,12.20
2022-09-26T06:16:33.983Z,12.20
2022-09-26T06:19:23.001Z,12.20
2022-09-26T06:22:10.095Z,12.30
2022-09-26T06:24:56.472Z,12.30
2022-09-26T06:27:43.917Z,12.40
2022-09-26T06:30:30.428Z,12.30
2022-09-26T06:33:18.128Z,12.30
2022-09-26T06:36:07.556Z,12.40
2022-09-26T06:38:55.399Z,12.50
2022-09-26T06:41:42.044Z,12.50
2022-09-26T06:44:28.463Z,12.50
2022-09-26T06:47:14.877Z,12.50
2022-09-26T06:50:03.252Z,12.60
2022-09-26T06:52:49.628Z,12.50
2022-09-26T06:55:36.115Z,12.60
2022-09-26T06:58:22.555Z,12.70
2022-09-26T07:01:11.164Z,12.80
2022-09-26T07:03:57.697Z,12.80
2022-09-26T07:06:45.251Z,12.90
2022-09-26T07:09:32.191Z,12.90
2022-09-26T07:12:18.933Z,13.00
2022-09-26T07:15:06.150Z,13.10
2022-09-26T07:17:53.610Z,13.20
2022-09-26T07:20:42.775Z,13.20
2022-09-26T07:23:30.556Z,13.10
2022-09-26T07:26:16.809Z,13.10
2022-09-26T07:29:03.284Z,13.10
2022-09-26T07:31:49.849Z,13.10
2022-09-26T07:34:36.713Z,13.10
2022-09-26T07:37:23.073Z,13.10
2022-09-26T07:40:12.090Z,13.00
2022-09-26T07:43:20.175Z,13.20
2022-09-26T07:46:25.429Z,13.20
2022-09-26T07:49:29.238Z,13.20
2022-09-26T07:52:17.442Z,13.10
2022-09-26T07:55:04.006Z,13.30
2022-09-26T07:57:52.136Z,13.30
2022-09-26T08:00:39.043Z,13.20
2022-09-26T08:03:28.728Z,13.30
2022-09-26T08:06:17.768Z,13.50
2022-09-26T08:09:05.294Z,13.50
2022-09-26T08:11:51.865Z,13.50
2022-09-26T08:14:39.895Z,13.70
2022-09-26T08:17:26.452Z,13.80
2022-09-26T08:20:12.840Z,13.80
2022-09-26T08:22:59.256Z,13.80
2022-09-26T08:25:46.664Z,13.80
2022-09-26T08:28:33.180Z,13.70
2022-09-26T08:31:21.011Z,13.80
2022-09-26T08:34:08.134Z,13.80
2022-09-26T08:36:55.088Z,14.00
2022-09-26T08:39:41.747Z,13.90
2022-09-26T08:42:40.330Z,14.00
2022-09-26T08:45:56.530Z,14.00
2022-09-26T08:48:59.295Z,14.00
2022-09-26T08:51:50.028Z,14.00
2022-09-26T08:54:41.088Z,14.00
2022-09-26T08:57:35.128Z,14.00
2022-09-26T09:00:24.318Z,14.10
2022-09-26T09:03:25.623Z,14.10
2022-09-26T09:06:15.409Z,14.10
2022-09-26T09:09:02.292Z,14.10
2022-09-26T09:12:08.504Z,14.00
2022-09-26T09:15:26.273Z,14.00
2022-09-26T09:18:22.770Z,14.00
2022-09-26T09:21:21.736Z,14.10
2022-09-26T09:24:20.211Z,14.10
2022-09-26T09:30:32.747Z,14.00
2022-09-26T09:33:22.865Z,14.10
2022-09-26T09:36:14.039Z,14.10
2022-09-26T09:39:07.045Z,13.90
2022-09-26T09:41:57.982Z,14.00
2022-09-26T09:44:47.479Z,14.00
2022-09-26T09:47:39.065Z,14.00
2022-09-26T09:50:36.839Z,14.00
2022-09-26T09:53:38.568Z,14.10
2022-09-26T09:56:35.093Z,14.10
2022-09-26T09:59:36.416Z,14.00
2022-09-26T10:02:35.063Z,14.10
2022-09-26T10:05:31.163Z,14.10
2022-09-26T10:08:20.425Z,14.00
2022-09-26T10:11:17.038Z,14.20
2022-09-26T10:14:09.394Z,14.20
2022-09-26T10:17:20.348Z,14.10
2022-09-26T10:20:10.272Z,14.30
2022-09-26T10:22:57.285Z,14.40
2022-09-26T10:25:49.331Z,14.50
2022-09-26T10:28:44.396Z,14.50
2022-09-26T10:31:42.088Z,14.40
2022-09-26T10:34:31.261Z,14.40
2022-09-26T10:37:24.344Z,14.40
2022-09-26T10:40:41.757Z,14.30
2022-09-26T10:43:30.593Z,14.20
2022-09-26T10:46:20.075Z,14.20
2022-09-26T10:49:14.245Z,14.10
2022-09-26T10:52:06.588Z,14.20
2022-09-26T10:54:57.997Z,14.30
2022-09-26T10:57:47.199Z,14.20
2022-09-26T11:00:39.157Z,14.00
2022-09-26T11:03:34.792Z,13.90
2022-09-26T11:06:30.275Z,13.80
2022-09-26T11:09:20.885Z,13.90
2022-09-26T11:12:26.156Z,13.90
2022-09-26T11:15:14.966Z,13.90
2022-09-26T11:18:01.631Z,13.90
2022-09-26T11:20:53.022Z,13.70
2022-09-26T11:23:47.379Z,13.60
2022-09-26T11:26:38.692Z,13.60
2022-09-26T11:29:38.019Z,13.60
2022-09-26T11:32:29.999Z,13.50
2022-09-26T11:35:21.072Z,13.60
2022-09-26T11:38:18.807Z,13.70
2022-09-26T11:41:39.624Z,13.60
2022-09-26T11:44:42.363Z,13.60
2022-09-26T11:48:00.229Z,13.40
2022-09-26T11:50:57.527Z,13.70
2022-09-26T11:54:09.154Z,13.60
2022-09-26T11:57:08.642Z,13.60
2022-09-26T12:00:24.282Z,13.60
2022-09-26T12:03:56.101Z,13.60
2022-09-26T12:06:49.776Z,13.60
2022-09-26T12:10:00.833Z,13.70
2022-09-26T12:13:01.223Z,13.70
2022-09-26T12:15:55.158Z,13.70
2022-09-26T12:18:53.469Z,13.60
2022-09-26T12:22:09.811Z,13.70
2022-09-26T12:25:22.887Z,13.60
2022-09-26T12:28:24.715Z,13.60
2022-09-26T12:31:19.361Z,13.60
2022-09-26T12:34:20.050Z,13.70
2022-09-26T12:37:23.331Z,13.60
2022-09-26T12:40:26.743Z,13.60
2022-09-26T12:43:29.480Z,13.70
2022-09-26T12:46:32.360Z,13.70
2022-09-26T12:49:46.076Z,13.60
2022-09-26T12:52:57.551Z,13.60
2022-09-26T12:55:53.341Z,13.60
2022-09-26T12:58:58.043Z,13.50
2022-09-26T13:02:00.737Z,13.50
2022-09-26T13:05:10.039Z,13.50
2022-09-26T13:08:04.877Z,13.40
2022-09-26T13:11:05.528Z,13.50
2022-09-26T13:14:29.642Z,13.50
2022-09-26T13:17:20.692Z,13.40
2022-09-26T13:20:16.043Z,13.40
2022-09-26T13:23:10.149Z,13.50
2022-09-26T13:26:00.825Z,13.40
2022-09-26T13:29:15.717Z,13.40
2022-09-26T13:32:14.221Z,13.30
2022-09-26T13:35:07.961Z,13.30
2022-09-26T13:38:08.283Z,13.40
2022-09-26T13:41:01.300Z,13.30
2022-09-26T13:44:00.500Z,13.40
2022-09-26T13:47:03.331Z,13.40
2022-09-26T13:50:01.336Z,13.40
2022-09-26T13:52:59.407Z,13.40
2022-09-26T13:55:46.645Z,13.40
2022-09-26T13:58:40.562Z,13.40
2022-09-26T14:01:28.832Z,13.40
2022-09-26T14:04:21.422Z,13.50
2022-09-26T14:07:42.659Z,13.40
2022-09-26T14:10:37.213Z,13.60
2022-09-26T14:13:36.702Z,13.50
2022-09-26T14:16:37.061Z,13.70
2022-09-26T14:19:36.257Z,13.60
2022-09-26T14:22:37.828Z,13.60
2022-09-26T14:26:03.320Z,13.50
2022-09-26T14:28:54.780Z,13.60
2022-09-26T14:31:41.849Z,13.50
2022-09-26T14:34:31.128Z,13.60
2022-09-26T14:37:33.080Z,13.70
2022-09-26T14:40:33.669Z,13.60
2022-09-26T14:43:21.085Z,13.60
2022-09-26T14:46:17.303Z,13.70
2022-09-26T14:49:07.153Z,13.60
2022-09-26T14:52:00.483Z,13.50
2022-09-26T14:54:49.101Z,13.50
2022-09-26T14:57:37.922Z,13.50
2022-09-26T15:00:40.434Z,13.50
2022-09-26T15:03:27.691Z,13.40
2022-09-26T15:06:15.020Z,14.70
2022-09-26T15:09:10.309Z,13.50
2022-09-26T15:12:00.377Z,13.40
2022-09-26T15:14:53.294Z,13.50
2022-09-26T15:17:42.495Z,13.50
2022-09-26T15:20:32.101Z,13.50
2022-09-26T15:23:24.319Z,13.50
2022-09-26T15:26:11.424Z,13.50
2022-09-26T15:28:59.245Z,13.40
2022-09-26T15:31:47.607Z,13.40
2022-09-26T15:34:36.508Z,13.40
2022-09-26T15:37:25.075Z,13.40
2022-09-26T15:40:14.164Z,13.50
2022-09-26T15:43:09.175Z,13.50
2022-09-26T15:45:58.376Z,13.40
2022-09-26T15:48:47.117Z,13.50
2022-09-26T15:51:38.215Z,13.40
2022-09-26T15:54:29.320Z,13.40
2022-09-26T15:57:16.104Z,13.50
2022-09-26T16:00:03.373Z,13.40
2022-09-26T16:02:50.226Z,13.40
2022-09-26T16:05:38.228Z,13.30
2022-09-26T16:08:29.260Z,13.40
2022-09-26T16:11:15.652Z,13.40
2022-09-26T16:14:02.494Z,13.40
2022-09-26T16:16:49.183Z,13.30
2022-09-26T16:19:37.028Z,13.20
2022-09-26T16:22:38.915Z,13.30
2022-09-26T16:25:29.486Z,13.20
2022-09-26T16:28:42.520Z,13.20
2022-09-26T16:31:32.841Z,13.20
2022-09-26T16:34:22.290Z,13.20
2022-09-26T16:37:18.525Z,13.20
2022-09-26T16:40:07.601Z,13.30
2022-09-26T16:42:54.265Z,13.20
2022-09-26T16:45:47.634Z,13.30
2022-09-26T16:48:41.086Z,13.20
2022-09-26T16:51:30.877Z,13.30
2022-09-26T16:54:20.642Z,13.20
2022-09-26T16:57:16.923Z,13.30
2022-09-26T17:00:23.562Z,13.20
2022-09-26T17:03:22.079Z,13.20
2022-09-26T17:06:08.758Z,13.30
2022-09-26T17:08:56.534Z,13.20
2022-09-26T17:11:44.379Z,13.20
2022-09-26T17:14:40.431Z,13.20
2022-09-26T17:17:28.144Z,13.30
2022-09-26T17:20:15.829Z,13.20
2022-09-26T17:23:21.953Z,13.20
2022-09-26T17:26:13.096Z,13.20
2022-09-26T17:28:59.428Z,13.20
2022-09-26T17:31:47.261Z,13.20
2022-09-26T17:34:34.852Z,13.10
2022-09-26T17:37:23.106Z,13.10
2022-09-26T17:40:18.855Z,13.00
2022-09-26T17:43:06.564Z,13.00
2022-09-26T17:45:54.075Z,12.90
2022-09-26T17:48:42.893Z,12.90
2022-09-26T17:51:31.170Z,12.90
2022-09-26T17:54:20.377Z,12.90
2022-09-26T17:57:10.031Z,12.80
2022-09-26T17:59:57.121Z,12.80
2022-09-26T18:02:45.656Z,12.80
2022-09-26T18:05:37.600Z,12.70
2022-09-26T18:08:26.557Z,12.70
2022-09-26T18:11:17.203Z,12.70
2022-09-26T18:14:05.525Z,12.60
2022-09-26T18:16:52.194Z,12.70
2022-09-26T18:19:38.507Z,12.60
2022-09-26T18:22:32.072Z,12.50
2022-09-26T18:25:21.660Z,12.60
2022-09-26T18:28:12.803Z,12.60
2022-09-26T18:31:00.907Z,12.60
2022-09-26T18:33:47.361Z,12.50
2022-09-26T18:36:34.192Z,12.50
2022-09-26T18:39:22.254Z,12.40
2022-09-26T18:42:11.955Z,12.50
2022-09-26T18:45:03.537Z,12.60
2022-09-26T18:47:50.925Z,12.50
2022-09-26T18:50:39.567Z,12.60
2022-09-26T18:53:29.554Z,12.60
2022-09-26T18:56:34.784Z,12.50
2022-09-26T18:59:24.522Z,12.50
2022-09-26T19:02:21.964Z,12.60
2022-09-26T19:05:12.750Z,12.50
2022-09-26T19:08:06.279Z,12.40
2022-09-26T19:10:52.636Z,12.40
2022-09-26T19:13:40.760Z,12.40
2022-09-26T19:16:27.295Z,12.40
2022-09-26T19:19:14.646Z,12.30
2022-09-26T19:22:08.020Z,12.40
2022-09-26T19:24:57.067Z,12.30
2022-09-26T19:27:49.623Z,12.30
2022-09-26T19:30:37.687Z,12.30
2022-09-26T19:33:24.423Z,12.30
2022-09-26T19:36:12.121Z,12.30
2022-09-26T19:38:58.858Z,12.30
2022-09-26T19:41:45.418Z,12.30
2022-09-26T19:44:32.167Z,12.30
2022-09-26T19:47:22.743Z,12.30
2022-09-26T19:50:16.339Z,12.30
2022-09-26T19:53:04.612Z,12.30
2022-09-26T19:55:51.738Z,12.20
2022-09-26T19:58:38.389Z,12.20
2022-09-26T20:01:24.909Z,12.30
2022-09-26T20:04:18.394Z,12.10
2022-09-26T20:07:04.987Z,12.20
2022-09-26T20:09:51.594Z,12.20
2022-09-26T20:12:38.065Z,12.20
2022-09-26T20:15:24.413Z,12.20
2022-09-26T20:18:16.883Z,12.20
2022-09-26T20:21:05.198Z,12.10
2022-09-26T20:23:52.285Z,12.10
2022-09-26T20:26:40.269Z,12.10
2022-09-26T20:29:26.961Z,12.10
2022-09-26T20:32:15.476Z,12.00
2022-09-26T20:35:02.741Z,12.00
2022-09-26T20:37:51.368Z,12.00
2022-09-26T20:40:38.594Z,12.00
2022-09-26T20:43:29.596Z,12.00
2022-09-26T20:46:16.300Z,11.90
2022-09-26T20:49:05.845Z,11.90
2022-09-26T20:51:53.457Z,12.00
2022-09-26T20:54:41.503Z,12.00
2022-09-26T20:57:28.353Z,12.00
2022-09-26T21:00:15.945Z,12.00
2022-09-26T21:03:02.915Z,12.00
2022-09-26T21:05:49.239Z,12.00
2022-09-26T21:08:35.629Z,12.00
2022-09-26T21:11:23.647Z,11.90
2022-09-26T21:14:10.400Z,11.90
2022-09-26T21:16:56.892Z,11.90
2022-09-26T21:19:43.703Z,11.90
2022-09-26T21:22:30.193Z,11.90
2022-09-26T21:25:18.950Z,11.90
2022-09-26T21:28:21.888Z,11.90
2022-09-26T21:31:08.703Z,11.90
2022-09-26T21:33:56.373Z,11.90
2022-09-26T21:36:42.623Z,11.90
2022-09-26T21:39:29.457Z,11.90
2022-09-26T21:42:15.792Z,11.90
2022-09-26T21:45:06.899Z,11.90
2022-09-26T21:47:53.361Z,12.00
2022-09-26T21:50:42.993Z,11.90
2022-09-26T21:53:33.937Z,11.90
2022-09-26T21:56:25.673Z,11.90
2022-09-26T21:59:12.317Z,12.00
2022-09-26T22:01:59.948Z,12.00
2022-09-26T22:04:47.742Z,12.00
2022-09-26T22:07:34.501Z,11.90
2022-09-26T22:10:20.771Z,11.90
2022-09-26T22:13:07.104Z,12.00
2022-09-26T22:15:53.551Z,11.90
2022-09-26T22:18:42.113Z,12.00
2022-09-26T22:21:28.972Z,11.90
2022-09-26T22:24:15.940Z,11.90
2022-09-26T22:27:02.592Z,11.90
2022-09-26T22:29:49.263Z,11.90
2022-09-26T22:32:36.177Z,11.90
2022-09-26T22:35:23.866Z,11.90
2022-09-26T22:38:10.325Z,11.90
2022-09-26T22:40:57.936Z,11.90
2022-09-26T22:43:44.536Z,12.00
2022-09-26T22:46:34.896Z,12.00
2022-09-26T22:49:21.527Z,11.90
2022-09-26T22:52:09.530Z,11.90
2022-09-26T22:54:56.526Z,12.00
2022-09-26T22:57:43.199Z,12.00
2022-09-26T23:00:29.640Z,11.90
2022-09-26T23:03:15.917Z,11.90
2022-09-26T23:06:02.418Z,11.90
2022-09-26T23:08:50.965Z,11.90
2022-09-26T23:11:37.708Z,11.90
2022-09-26T23:14:24.084Z,12.00
2022-09-26T23:17:10.541Z,12.00
2022-09-26T23:19:56.914Z,12.00
2022-09-26T23:22:43.205Z,11.20
2022-09-26T23:25:31.003Z,12.00
2022-09-26T23:28:18.724Z,12.00
2022-09-26T23:31:06.844Z,12.00
2022-09-26T23:33:54.032Z,11.90
2022-09-26T23:36:40.804Z,11.90
2022-09-26T23:39:27.185Z,11.90
2022-09-26T23:42:14.791Z,12.00
2022-09-26T23:45:01.338Z,12.00
2022-09-26T23:47:47.928Z,12.00
2022-09-26T23:50:35.165Z,12.00
2022-09-26T23:53:22.194Z,12.00
2022-09-26T23:56:11.175Z,12.00
2022-09-26T23:58:59.177Z,12.00
